Terminal Aerodrome Forecast
Issued by NWS

Home | Current Version | Previous Version | Text Only | Print | Product List | Glossary On
Versions: 1 2 3 4 5 6 7 8 9 10 11 12 13 14 15 16 17 18 19 20 21 22 23 24 25 26 27 28 29
000
FTUS45 KSLC 051120
TAFEVW
TAF
KEVW 051120Z 0512/0612 13005KT P6SM OVC150
     FM051700 19010G18KT P6SM BKN150
     FM052000 20015G24KT P6SM SCT100 BKN150
     FM060100 16010KT P6SM BKN100 OVC150=

USA.gov is the U.S. government's official web portal to all federal, state and local government web resources and services.